Darstellungsparameter: Aktuell verwendete Einstellungen:
Skalierung der Graphiken ... ?
xyx+y,   Skalierungsfaktor:      Skalierung: Modus: x, Faktor: 1
Darstellungszeitraum ... ?
Vom - - bis: - -   Zeitraum: 18.08.2018 - 18.08.2018
Min/Max/Avg-Anzeige ... ?
Zeige MMA aktuell
Zeige MMA Monat
Zeige MMA alles
Zeige --A aktuell
Zeige --A Monat
Zeige --A alles
Keine MMA-Anzeige
MMA:
Average (ber die Originaldaten)
MMA-Basis: 23.02.2003 - 19.08.2019
Quicknavigation für Darstellung... ?
Tage:      1T, 2T, 3T, 5T -1T -2T -3T -5T +1T +2T +3T +5T
Wochen: 1W, 2W, 3W -1W -2W -3W +1W +2W +3W
Monate: 1M, 3M, 6M -1M -3M -6M +1M +3M +6M
Jahre:    1J, 3J, 5J, 10J -1J -3J -5J -10J +1J +3J +5J +10J
Nutze für die Darstellung ... ?
Originaldaten oder Mittelwerte auf ...
Stundenbasis Tagesbasis Wochenbasis
Monatsbasis Jahresbasis      Datenbasis: Original-Daten
Darstellen als:
Statistik (Auto) Statistik J:M      Darstellung:
Zur Graphik,    zurück zur Übersicht aller Sensoren.
 
Tabellarische Datenbersicht: ?
 
Sensor: Nr:Datum:Temp:Feuchte:Taupunkt:
Aussen-T/F 1 18-08-2018 00:00:00 16.2 C 82 % 13.13 C
2 18-08-2018 00:05:00 16.1 C 82 % 13.03 C
3 18-08-2018 00:10:00 16.1 C 83 % 13.21 C
4 18-08-2018 00:15:00 16 C 83 % 13.12 C
5 18-08-2018 00:20:00 15.9 C 83 % 13.02 C
6 18-08-2018 00:25:00 15.8 C 83 % 12.92 C
7 18-08-2018 00:30:00 15.7 C 83 % 12.82 C
8 18-08-2018 00:35:00 15.6 C 83 % 12.72 C
9 18-08-2018 00:40:00 15.5 C 84 % 12.81 C
10 18-08-2018 00:45:00 15.4 C 84 % 12.71 C
11 18-08-2018 00:50:00 15.3 C 84 % 12.61 C
12 18-08-2018 00:55:00 15.3 C 84 % 12.61 C
13 18-08-2018 01:00:00 15.2 C 85 % 12.7 C
14 18-08-2018 01:05:00 15.1 C 85 % 12.6 C
15 18-08-2018 01:10:00 15 C 85 % 12.5 C
16 18-08-2018 01:15:00 14.9 C 86 % 12.58 C
17 18-08-2018 01:20:00 14.8 C 86 % 12.48 C
18 18-08-2018 01:25:00 14.7 C 86 % 12.38 C
19 18-08-2018 01:30:00 14.7 C 86 % 12.38 C
20 18-08-2018 01:35:00 14.7 C 87 % 12.56 C
21 18-08-2018 01:40:00 14.7 C 87 % 12.56 C
22 18-08-2018 01:45:00 14.7 C 87 % 12.56 C
23 18-08-2018 01:50:00 14.6 C 87 % 12.46 C
24 18-08-2018 01:55:00 14.6 C 87 % 12.46 C
25 18-08-2018 02:00:00 14.4 C 87 % 12.27 C
Sensor: Nr:Datum:Temp:Feuchte:Taupunkt:
Aussen-T/F 26 18-08-2018 02:05:00 14.3 C 87 % 12.17 C
27 18-08-2018 02:10:00 14.3 C 87 % 12.17 C
28 18-08-2018 02:15:00 14.2 C 87 % 12.07 C
29 18-08-2018 02:20:00 14.2 C 87 % 12.07 C
30 18-08-2018 02:25:00 14.1 C 88 % 12.14 C
31 18-08-2018 02:30:00 14.1 C 88 % 12.14 C
32 18-08-2018 02:35:00 14.1 C 88 % 12.14 C
33 18-08-2018 02:40:00 14 C 88 % 12.05 C
34 18-08-2018 02:45:00 14 C 88 % 12.05 C
35 18-08-2018 02:50:00 13.9 C 88 % 11.95 C
36 18-08-2018 02:55:00 13.9 C 88 % 11.95 C
37 18-08-2018 03:00:00 13.8 C 88 % 11.85 C
38 18-08-2018 03:05:00 13.8 C 89 % 12.02 C
39 18-08-2018 03:10:00 13.7 C 89 % 11.92 C
40 18-08-2018 03:15:00 13.7 C 88 % 11.75 C
41 18-08-2018 03:20:00 13.6 C 89 % 11.82 C
42 18-08-2018 03:25:00 13.5 C 89 % 11.72 C
43 18-08-2018 03:30:00 13.5 C 89 % 11.72 C
44 18-08-2018 03:35:00 13.4 C 89 % 11.63 C
45 18-08-2018 03:40:00 13.4 C 89 % 11.63 C
46 18-08-2018 03:45:00 13.2 C 89 % 11.43 C
47 18-08-2018 03:50:00 13.2 C 89 % 11.43 C
48 18-08-2018 03:55:00 13.2 C 90 % 11.6 C
49 18-08-2018 04:00:00 13.1 C 90 % 11.5 C
50 18-08-2018 04:05:00 13.1 C 89 % 11.33 C
Sensor: Nr:Datum:Temp:Feuchte:Taupunkt:
Aussen-T/F 51 18-08-2018 04:10:00 13 C 90 % 11.4 C
52 18-08-2018 04:15:00 12.9 C 90 % 11.3 C
53 18-08-2018 04:20:00 12.9 C 90 % 11.3 C
54 18-08-2018 04:25:00 12.8 C 90 % 11.2 C
55 18-08-2018 04:30:00 12.8 C 90 % 11.2 C
56 18-08-2018 04:35:00 12.8 C 90 % 11.2 C
57 18-08-2018 04:40:00 12.8 C 91 % 11.37 C
58 18-08-2018 04:45:00 12.8 C 90 % 11.2 C
59 18-08-2018 04:50:00 12.7 C 90 % 11.1 C
60 18-08-2018 04:55:00 12.7 C 91 % 11.27 C
61 18-08-2018 05:00:00 12.7 C 91 % 11.27 C
62 18-08-2018 05:05:00 12.6 C 91 % 11.17 C
63 18-08-2018 05:10:00 12.6 C 91 % 11.17 C
64 18-08-2018 05:15:00 12.5 C 91 % 11.07 C
65 18-08-2018 05:20:00 12.5 C 91 % 11.07 C
66 18-08-2018 05:25:00 12.5 C 91 % 11.07 C
67 18-08-2018 05:30:00 12.6 C 91 % 11.17 C
68 18-08-2018 05:35:00 12.5 C 91 % 11.07 C
69 18-08-2018 05:40:00 12.4 C 91 % 10.97 C
70 18-08-2018 05:45:00 12.4 C 91 % 10.97 C
71 18-08-2018 05:50:00 12.4 C 92 % 11.14 C
72 18-08-2018 05:55:00 12.4 C 92 % 11.14 C
73 18-08-2018 06:00:00 12.3 C 91 % 10.87 C
74 18-08-2018 06:05:00 12.3 C 91 % 10.87 C
75 18-08-2018 06:10:00 12.2 C 91 % 10.78 C
Sensor: Nr:Datum:Temp:Feuchte:Taupunkt:
Aussen-T/F 76 18-08-2018 06:15:00 12.2 C 91 % 10.78 C
77 18-08-2018 06:20:00 12.1 C 91 % 10.68 C
78 18-08-2018 06:25:00 12 C 92 % 10.74 C
79 18-08-2018 06:30:00 11.9 C 92 % 10.64 C
80 18-08-2018 06:35:00 11.9 C 92 % 10.64 C
81 18-08-2018 06:40:00 11.9 C 92 % 10.64 C
82 18-08-2018 06:45:00 11.9 C 92 % 10.64 C
83 18-08-2018 06:50:00 11.8 C 92 % 10.54 C
84 18-08-2018 06:55:00 11.8 C 92 % 10.54 C
85 18-08-2018 07:00:00 11.9 C 92 % 10.64 C
86 18-08-2018 07:05:00 11.9 C 92 % 10.64 C
87 18-08-2018 07:10:00 11.9 C 92 % 10.64 C
88 18-08-2018 07:15:00 11.9 C 92 % 10.64 C
89 18-08-2018 07:20:00 11.9 C 92 % 10.64 C
90 18-08-2018 07:25:00 12 C 92 % 10.74 C
91 18-08-2018 07:30:00 12.1 C 93 % 11 C
92 18-08-2018 07:35:00 12.1 C 93 % 11 C
93 18-08-2018 07:40:00 12.1 C 93 % 11 C
94 18-08-2018 07:45:00 12.2 C 93 % 11.1 C
95 18-08-2018 07:50:00 12.2 C 93 % 11.1 C
96 18-08-2018 07:55:00 12.2 C 93 % 11.1 C
97 18-08-2018 08:00:00 12.3 C 93 % 11.2 C
98 18-08-2018 08:05:00 12.3 C 93 % 11.2 C
99 18-08-2018 08:10:00 12.3 C 93 % 11.2 C
100 18-08-2018 08:15:00 12.3 C 93 % 11.2 C
Sensor: Nr:Datum:Temp:Feuchte:Taupunkt:
Aussen-T/F 101 18-08-2018 08:20:00 12.4 C 93 % 11.3 C
102 18-08-2018 08:25:00 12.4 C 93 % 11.3 C
103 18-08-2018 08:30:00 12.5 C 93 % 11.4 C
104 18-08-2018 08:35:00 12.6 C 93 % 11.5 C
105 18-08-2018 08:40:00 12.6 C 93 % 11.5 C
106 18-08-2018 08:45:00 12.7 C 93 % 11.6 C
107 18-08-2018 08:50:00 12.7 C 93 % 11.6 C
108 18-08-2018 08:55:00 12.8 C 93 % 11.7 C
109 18-08-2018 09:00:00 12.9 C 93 % 11.8 C
110 18-08-2018 09:05:00 13.1 C 93 % 11.99 C
111 18-08-2018 09:10:00 13.2 C 93 % 12.09 C
112 18-08-2018 09:15:00 13.3 C 93 % 12.19 C
113 18-08-2018 09:20:00 13.4 C 93 % 12.29 C
114 18-08-2018 09:25:00 13.5 C 93 % 12.39 C
115 18-08-2018 09:30:00 13.7 C 93 % 12.59 C
116 18-08-2018 09:35:00 13.8 C 93 % 12.69 C
117 18-08-2018 09:40:00 13.9 C 93 % 12.79 C
118 18-08-2018 09:45:00 14.1 C 93 % 12.99 C
119 18-08-2018 09:50:00 14.2 C 93 % 13.08 C
120 18-08-2018 09:55:00 14.3 C 93 % 13.18 C
121 18-08-2018 10:00:00 14.4 C 92 % 13.12 C
122 18-08-2018 10:05:00 14.6 C 92 % 13.32 C
123 18-08-2018 10:10:00 14.8 C 91 % 13.35 C
124 18-08-2018 10:15:00 15 C 91 % 13.54 C
125 18-08-2018 10:20:00 15.2 C 91 % 13.74 C
Sensor: Nr:Datum:Temp:Feuchte:Taupunkt:
Aussen-T/F 126 18-08-2018 10:25:00 15.4 C 90 % 13.77 C
127 18-08-2018 10:30:00 15.6 C 89 % 13.79 C
128 18-08-2018 10:35:00 15.9 C 87 % 13.74 C
129 18-08-2018 10:40:00 16.3 C 86 % 13.95 C
130 18-08-2018 10:45:00 16.6 C 84 % 13.89 C
131 18-08-2018 10:50:00 16.9 C 83 % 14 C
132 18-08-2018 10:55:00 17.2 C 82 % 14.1 C
133 18-08-2018 11:00:00 17.4 C 81 % 14.11 C
134 18-08-2018 11:05:00 17.7 C 80 % 14.21 C
135 18-08-2018 11:10:00 17.9 C 79 % 14.21 C
136 18-08-2018 11:15:00 18.1 C 77 % 14.01 C
137 18-08-2018 11:20:00 18.4 C 77 % 14.3 C
138 18-08-2018 11:25:00 18.6 C 76 % 14.29 C
139 18-08-2018 11:30:00 18.8 C 73 % 13.86 C
140 18-08-2018 11:35:00 19.1 C 72 % 13.94 C
141 18-08-2018 11:40:00 19.2 C 72 % 14.03 C
142 18-08-2018 11:45:00 19.5 C 70 % 13.89 C
143 18-08-2018 11:50:00 19.7 C 65 % 12.94 C
144 18-08-2018 11:55:00 20 C 64 % 12.99 C
145 18-08-2018 12:00:00 20.2 C 64 % 13.18 C
146 18-08-2018 12:05:00 20.4 C 62 % 12.88 C
147 18-08-2018 12:10:00 20.7 C 59 % 12.41 C
148 18-08-2018 12:15:00 20.8 C 58 % 12.24 C
149 18-08-2018 12:20:00 20.9 C 59 % 12.59 C
150 18-08-2018 12:25:00 21.2 C 60 % 13.13 C
Sensor: Nr:Datum:Temp:Feuchte:Taupunkt:
Aussen-T/F 151 18-08-2018 12:30:00 21.3 C 60 % 13.22 C
152 18-08-2018 12:35:00 21.3 C 60 % 13.22 C
153 18-08-2018 12:40:00 21.4 C 58 % 12.8 C
154 18-08-2018 12:45:00 21.4 C 59 % 13.06 C
155 18-08-2018 12:50:00 21.5 C 57 % 12.63 C
156 18-08-2018 12:55:00 21.6 C 58 % 12.99 C
157 18-08-2018 13:00:00 21.7 C 59 % 13.34 C
158 18-08-2018 13:05:00 21.8 C 59 % 13.44 C
159 18-08-2018 13:10:00 21.8 C 54 % 12.08 C
160 18-08-2018 13:15:00 21.9 C 53 % 11.89 C
161 18-08-2018 13:20:00 21.9 C 54 % 12.18 C
162 18-08-2018 13:25:00 22 C 53 % 11.99 C
163 18-08-2018 13:30:00 22.3 C 51 % 11.68 C
164 18-08-2018 13:35:00 22.5 C 53 % 12.45 C
165 18-08-2018 13:40:00 22.7 C 52 % 12.34 C
166 18-08-2018 13:45:00 22.8 C 51 % 12.14 C
167 18-08-2018 13:50:00 22.8 C 50 % 11.84 C
168 18-08-2018 13:55:00 22.9 C 50 % 11.93 C
169 18-08-2018 14:00:00 23.1 C 50 % 12.11 C
170 18-08-2018 14:05:00 23.1 C 49 % 11.81 C
171 18-08-2018 14:10:00 23.3 C 48 % 11.68 C
172 18-08-2018 14:15:00 23.4 C 48 % 11.77 C
173 18-08-2018 14:20:00 23.6 C 47 % 11.63 C
174 18-08-2018 14:25:00 23.6 C 46 % 11.31 C
175 18-08-2018 14:30:00 23.7 C 45 % 11.07 C
Sensor: Nr:Datum:Temp:Feuchte:Taupunkt:
Aussen-T/F 176 18-08-2018 14:35:00 23.8 C 46 % 11.49 C
177 18-08-2018 14:40:00 23.8 C 47 % 11.82 C
178 18-08-2018 14:45:00 23.9 C 45 % 11.25 C
179 18-08-2018 14:50:00 24 C 45 % 11.34 C
180 18-08-2018 14:55:00 24.2 C 45 % 11.52 C
181 18-08-2018 15:00:00 24.3 C 44 % 11.27 C
182 18-08-2018 15:05:00 24.4 C 45 % 11.7 C
183 18-08-2018 15:10:00 24.5 C 44 % 11.45 C
184 18-08-2018 15:15:00 24.7 C 44 % 11.63 C
185 18-08-2018 15:20:00 24.9 C 43 % 11.47 C
186 18-08-2018 15:25:00 25.1 C 43 % 11.65 C
187 18-08-2018 15:30:00 25.2 C 42 % 11.38 C
188 18-08-2018 15:35:00 25.3 C 41 % 11.11 C
189 18-08-2018 15:40:00 25.3 C 45 % 12.52 C
190 18-08-2018 15:45:00 25.4 C 42 % 11.56 C
191 18-08-2018 15:50:00 25.4 C 41 % 11.2 C
192 18-08-2018 15:55:00 25.6 C 41 % 11.38 C
193 18-08-2018 16:00:00 26 C 41 % 11.73 C
194 18-08-2018 16:05:00 26.3 C 39 % 11.25 C
195 18-08-2018 16:10:00 26.4 C 41 % 12.09 C
196 18-08-2018 16:15:00 26.8 C 41 % 12.45 C
197 18-08-2018 16:20:00 27.2 C 39 % 12.05 C
198 18-08-2018 16:25:00 27.4 C 36 % 11.01 C
199 18-08-2018 16:30:00 27.6 C 39 % 12.4 C
200 18-08-2018 16:35:00 27.8 C 37 % 11.78 C
Sensor: Nr:Datum:Temp:Feuchte:Taupunkt:
Aussen-T/F 201 18-08-2018 16:40:00 27.8 C 37 % 11.78 C
202 18-08-2018 16:45:00 27.7 C 37 % 11.69 C
203 18-08-2018 16:50:00 27.3 C 36 % 10.93 C
204 18-08-2018 16:55:00 27.3 C 36 % 10.93 C
205 18-08-2018 17:00:00 27.4 C 37 % 11.43 C
206 18-08-2018 17:05:00 27.6 C 38 % 12.01 C
207 18-08-2018 17:10:00 27.7 C 37 % 11.69 C
208 18-08-2018 17:15:00 27.6 C 37 % 11.6 C
209 18-08-2018 17:20:00 27.6 C 36 % 11.19 C
210 18-08-2018 17:25:00 27.6 C 36 % 11.19 C
211 18-08-2018 17:30:00 27.6 C 36 % 11.19 C
212 18-08-2018 17:35:00 27.7 C 36 % 11.28 C
213 18-08-2018 17:40:00 27.8 C 35 % 10.94 C
214 18-08-2018 17:45:00 28.1 C 35 % 11.2 C
215 18-08-2018 17:50:00 28.1 C 35 % 11.2 C
216 18-08-2018 17:55:00 28.2 C 34 % 10.86 C
217 18-08-2018 18:00:00 28.1 C 34 % 10.77 C
218 18-08-2018 18:05:00 28.2 C 35 % 11.29 C
219 18-08-2018 18:10:00 28.2 C 35 % 11.29 C
220 18-08-2018 18:15:00 28.2 C 36 % 11.72 C
221 18-08-2018 18:20:00 28.2 C 35 % 11.29 C
222 18-08-2018 18:25:00 28.2 C 35 % 11.29 C
223 18-08-2018 18:30:00 28.2 C 35 % 11.29 C
224 18-08-2018 18:35:00 28.2 C 35 % 11.29 C
225 18-08-2018 18:40:00 28.1 C 35 % 11.2 C
Sensor: Nr:Datum:Temp:Feuchte:Taupunkt:
Aussen-T/F 226 18-08-2018 18:45:00 28.3 C 34 % 10.94 C
227 18-08-2018 18:50:00 28.4 C 34 % 11.03 C
228 18-08-2018 18:55:00 28.5 C 33 % 10.67 C
229 18-08-2018 19:00:00 28.6 C 33 % 10.76 C
230 18-08-2018 19:05:00 28.6 C 33 % 10.76 C
231 18-08-2018 19:10:00 28.4 C 33 % 10.58 C
232 18-08-2018 19:15:00 28.3 C 33 % 10.49 C
233 18-08-2018 19:20:00 27.9 C 36 % 11.45 C
234 18-08-2018 19:25:00 27.5 C 35 % 10.68 C
235 18-08-2018 19:30:00 27.3 C 37 % 11.34 C
236 18-08-2018 19:35:00 27.1 C 39 % 11.96 C
237 18-08-2018 19:40:00 26.8 C 43 % 13.18 C
238 18-08-2018 19:45:00 26.4 C 45 % 13.51 C
239 18-08-2018 19:50:00 25.8 C 46 % 13.31 C
240 18-08-2018 19:55:00 25.2 C 48 % 13.41 C
241 18-08-2018 20:00:00 24.9 C 43 % 11.47 C
242 18-08-2018 20:05:00 24.9 C 42 % 11.11 C
243 18-08-2018 20:10:00 25.1 C 43 % 11.65 C
244 18-08-2018 20:15:00 25.2 C 44 % 12.09 C
245 18-08-2018 20:20:00 25.1 C 43 % 11.65 C
246 18-08-2018 20:25:00 24.8 C 44 % 11.72 C
247 18-08-2018 20:30:00 24.7 C 48 % 12.96 C
248 18-08-2018 20:35:00 24.4 C 50 % 13.31 C
249 18-08-2018 20:40:00 23.8 C 49 % 12.45 C
250 18-08-2018 20:45:00 23.3 C 49 % 11.99 C
Sensor: Nr:Datum:Temp:Feuchte:Taupunkt:
Aussen-T/F 251 18-08-2018 20:50:00 22.9 C 54 % 13.1 C
252 18-08-2018 20:55:00 22.5 C 54 % 12.73 C
253 18-08-2018 21:00:00 22.1 C 54 % 12.36 C
254 18-08-2018 21:05:00 21.8 C 55 % 12.36 C
255 18-08-2018 21:10:00 21.6 C 56 % 12.45 C
256 18-08-2018 21:15:00 21.4 C 56 % 12.27 C
257 18-08-2018 21:20:00 21.3 C 58 % 12.71 C
258 18-08-2018 21:25:00 21.2 C 59 % 12.87 C
259 18-08-2018 21:30:00 20.9 C 59 % 12.59 C
260 18-08-2018 21:35:00 20.7 C 60 % 12.66 C
261 18-08-2018 21:40:00 20.5 C 61 % 12.73 C
262 18-08-2018 21:45:00 20.2 C 62 % 12.69 C
263 18-08-2018 21:50:00 20.1 C 63 % 12.84 C
264 18-08-2018 21:55:00 19.9 C 62 % 12.41 C
265 18-08-2018 22:00:00 19.8 C 63 % 12.56 C
266 18-08-2018 22:05:00 19.7 C 64 % 12.7 C
267 18-08-2018 22:10:00 19.6 C 65 % 12.84 C
268 18-08-2018 22:15:00 19.6 C 65 % 12.84 C
269 18-08-2018 22:20:00 19.5 C 64 % 12.51 C
270 18-08-2018 22:25:00 19.4 C 66 % 12.89 C
271 18-08-2018 22:30:00 19.3 C 66 % 12.79 C
272 18-08-2018 22:35:00 19.2 C 66 % 12.7 C
273 18-08-2018 22:40:00 19.1 C 67 % 12.83 C
274 18-08-2018 22:45:00 19 C 67 % 12.74 C
275 18-08-2018 22:50:00 18.9 C 67 % 12.64 C
Sensor: Nr:Datum:Temp:Feuchte:Taupunkt:
Aussen-T/F 276 18-08-2018 22:55:00 18.8 C 67 % 12.55 C
277 18-08-2018 23:00:00 18.7 C 68 % 12.68 C
278 18-08-2018 23:05:00 18.7 C 68 % 12.68 C
279 18-08-2018 23:10:00 18.6 C 68 % 12.58 C
280 18-08-2018 23:15:00 18.4 C 69 % 12.61 C
281 18-08-2018 23:20:00 18.4 C 69 % 12.61 C
282 18-08-2018 23:25:00 18.3 C 69 % 12.52 C
283 18-08-2018 23:30:00 18.2 C 69 % 12.42 C
284 18-08-2018 23:35:00 18.2 C 70 % 12.64 C
285 18-08-2018 23:40:00 18.1 C 70 % 12.55 C
286 18-08-2018 23:45:00 17.9 C 71 % 12.57 C
287 18-08-2018 23:50:00 17.8 C 71 % 12.47 C
288 18-08-2018 23:55:00 17.6 C 71 % 12.28 C

Legende:
   Min
   Max


Maximal/Minimal-Werte vom 23.02.2003 - 19.08.2019

Sensor Min Max Avg
Temp
(Aussen-T/F)
-16.4 °C
20-12-2009  01:30:01
40.4 °C
25-07-2019  16:20:00
11.22 °C
Feuchte
(Aussen-T/F)
18 %
17-07-2015  15:55:00
100 %
07-10-2012  03:05:00
76.99 %

Die Daten stammen von einer Davis Vantage Pro 2 Wetter-Station und werden unter Linux mit der Software wview2wettercgi und aufbereitet. Alle Angaben erfolgen ohne Gewähr für ihre Vollständigkeit oder Richtigkeit.
Kontakt: Rainer Krienke krienke@uni-koblenz.de . Meine Webseiten an der Uni Koblenz oder privat.
Version: $Revision: 0.78 $